sensor_id;sensor_type;location;lat;lon;timestamp;P1;durP1;ratioP1;P2;durP2;ratioP2
24857;SDS011;12935;50.782;6.074;2022-08-19T00:00:04;23.83;;;16.03;;
24857;SDS011;12935;50.782;6.074;2022-08-19T00:02:33;39.50;;;18.20;;
24857;SDS011;12935;50.782;6.074;2022-08-19T00:04:58;23.33;;;14.83;;
24857;SDS011;12935;50.782;6.074;2022-08-19T00:07:23;34.80;;;16.63;;
24857;SDS011;12935;50.782;6.074;2022-08-19T00:09:49;27.43;;;16.10;;
24857;SDS011;12935;50.782;6.074;2022-08-19T00:12:14;39.40;;;17.70;;
24857;SDS011;12935;50.782;6.074;2022-08-19T00:14:40;33.13;;;16.70;;
24857;SDS011;12935;50.782;6.074;2022-08-19T00:17:06;46.40;;;18.70;;
24857;SDS011;12935;50.782;6.074;2022-08-19T00:19:32;29.67;;;15.40;;
24857;SDS011;12935;50.782;6.074;2022-08-19T00:21:58;31.00;;;16.97;;
24857;SDS011;12935;50.782;6.074;2022-08-19T00:24:23;29.67;;;16.10;;
24857;SDS011;12935;50.782;6.074;2022-08-19T00:26:49;34.90;;;18.13;;
24857;SDS011;12935;50.782;6.074;2022-08-19T00:29:15;28.00;;;17.43;;
24857;SDS011;12935;50.782;6.074;2022-08-19T00:31:43;24.87;;;16.23;;
24857;SDS011;12935;50.782;6.074;2022-08-19T00:34:09;31.37;;;15.80;;
24857;SDS011;12935;50.782;6.074;2022-08-19T00:36:36;41.13;;;17.30;;
24857;SDS011;12935;50.782;6.074;2022-08-19T00:39:02;22.23;;;15.50;;
24857;SDS011;12935;50.782;6.074;2022-08-19T00:41:28;20.27;;;14.17;;
24857;SDS011;12935;50.782;6.074;2022-08-19T00:46:52;24.57;;;15.70;;
24857;SDS011;12935;50.782;6.074;2022-08-19T00:49:20;22.50;;;14.77;;
24857;SDS011;12935;50.782;6.074;2022-08-19T00:51:56;25.90;;;14.73;;
24857;SDS011;12935;50.782;6.074;2022-08-19T00:54:26;24.27;;;16.60;;
24857;SDS011;12935;50.782;6.074;2022-08-19T00:56:52;43.53;;;17.00;;
24857;SDS011;12935;50.782;6.074;2022-08-19T00:59:18;30.70;;;16.83;;
24857;SDS011;12935;50.782;6.074;2022-08-19T01:01:44;37.17;;;19.30;;
24857;SDS011;12935;50.782;6.074;2022-08-19T01:04:11;28.33;;;15.93;;
24857;SDS011;12935;50.782;6.074;2022-08-19T01:06:37;28.00;;;16.20;;
24857;SDS011;12935;50.782;6.074;2022-08-19T01:09:05;39.00;;;16.80;;
24857;SDS011;12935;50.782;6.074;2022-08-19T01:11:31;25.33;;;16.73;;
24857;SDS011;12935;50.782;6.074;2022-08-19T01:14:00;36.03;;;17.10;;
24857;SDS011;12935;50.782;6.074;2022-08-19T01:16:26;26.23;;;17.13;;
24857;SDS011;12935;50.782;6.074;2022-08-19T01:18:53;28.43;;;16.90;;
24857;SDS011;12935;50.782;6.074;2022-08-19T01:23:50;34.27;;;17.20;;
24857;SDS011;12935;50.782;6.074;2022-08-19T01:26:16;30.53;;;18.50;;
24857;SDS011;12935;50.782;6.074;2022-08-19T01:28:45;36.77;;;17.30;;
24857;SDS011;12935;50.782;6.074;2022-08-19T01:31:13;38.93;;;17.67;;
24857;SDS011;12935;50.782;6.074;2022-08-19T01:33:41;23.07;;;15.17;;
24857;SDS011;12935;50.782;6.074;2022-08-19T01:36:08;24.77;;;16.43;;
24857;SDS011;12935;50.782;6.074;2022-08-19T01:38:39;24.53;;;15.30;;
24857;SDS011;12935;50.782;6.074;2022-08-19T01:41:07;33.00;;;17.00;;
24857;SDS011;12935;50.782;6.074;2022-08-19T01:43:33;27.57;;;14.73;;
24857;SDS011;12935;50.782;6.074;2022-08-19T01:45:59;29.93;;;15.80;;
24857;SDS011;12935;50.782;6.074;2022-08-19T01:48:24;27.03;;;14.90;;
24857;SDS011;12935;50.782;6.074;2022-08-19T01:50:49;29.10;;;17.00;;
24857;SDS011;12935;50.782;6.074;2022-08-19T01:53:15;23.13;;;16.70;;
24857;SDS011;12935;50.782;6.074;2022-08-19T01:55:41;22.83;;;14.40;;
24857;SDS011;12935;50.782;6.074;2022-08-19T01:58:12;36.70;;;15.87;;
24857;SDS011;12935;50.782;6.074;2022-08-19T02:00:41;27.63;;;14.40;;
24857;SDS011;12935;50.782;6.074;2022-08-19T02:03:07;29.73;;;16.37;;
24857;SDS011;12935;50.782;6.074;2022-08-19T02:05:34;36.63;;;16.47;;
24857;SDS011;12935;50.782;6.074;2022-08-19T02:07:59;28.43;;;15.43;;
24857;SDS011;12935;50.782;6.074;2022-08-19T02:10:24;41.63;;;16.23;;
24857;SDS011;12935;50.782;6.074;2022-08-19T02:12:50;28.40;;;14.33;;
24857;SDS011;12935;50.782;6.074;2022-08-19T02:15:16;30.20;;;16.27;;
24857;SDS011;12935;50.782;6.074;2022-08-19T02:17:44;25.93;;;15.17;;
24857;SDS011;12935;50.782;6.074;2022-08-19T02:20:10;30.87;;;17.67;;
24857;SDS011;12935;50.782;6.074;2022-08-19T02:22:36;46.27;;;18.77;;
24857;SDS011;12935;50.782;6.074;2022-08-19T02:25:01;48.10;;;18.10;;
24857;SDS011;12935;50.782;6.074;2022-08-19T02:27:27;47.23;;;20.07;;
24857;SDS011;12935;50.782;6.074;2022-08-19T02:29:52;32.63;;;17.23;;
24857;SDS011;12935;50.782;6.074;2022-08-19T02:32:18;47.47;;;16.50;;
24857;SDS011;12935;50.782;6.074;2022-08-19T02:34:44;26.83;;;15.43;;
24857;SDS011;12935;50.782;6.074;2022-08-19T02:37:10;27.13;;;17.03;;
24857;SDS011;12935;50.782;6.074;2022-08-19T02:39:55;32.93;;;15.90;;
24857;SDS011;12935;50.782;6.074;2022-08-19T02:42:21;54.40;;;18.47;;
24857;SDS011;12935;50.782;6.074;2022-08-19T02:44:46;28.43;;;16.10;;
24857;SDS011;12935;50.782;6.074;2022-08-19T02:47:12;33.33;;;17.70;;
24857;SDS011;12935;50.782;6.074;2022-08-19T02:49:39;39.73;;;18.17;;
24857;SDS011;12935;50.782;6.074;2022-08-19T02:52:04;33.97;;;18.43;;
24857;SDS011;12935;50.782;6.074;2022-08-19T02:54:30;25.17;;;16.13;;
24857;SDS011;12935;50.782;6.074;2022-08-19T02:56:55;35.13;;;16.47;;
24857;SDS011;12935;50.782;6.074;2022-08-19T02:59:20;22.93;;;13.97;;
24857;SDS011;12935;50.782;6.074;2022-08-19T03:01:46;31.10;;;14.63;;
24857;SDS011;12935;50.782;6.074;2022-08-19T03:04:12;39.13;;;17.57;;
24857;SDS011;12935;50.782;6.074;2022-08-19T03:06:39;39.63;;;17.70;;
24857;SDS011;12935;50.782;6.074;2022-08-19T03:09:07;35.77;;;16.47;;
24857;SDS011;12935;50.782;6.074;2022-08-19T03:11:33;23.20;;;14.07;;
24857;SDS011;12935;50.782;6.074;2022-08-19T03:13:58;46.13;;;19.60;;
24857;SDS011;12935;50.782;6.074;2022-08-19T03:16:25;39.77;;;17.77;;
24857;SDS011;12935;50.782;6.074;2022-08-19T03:18:51;26.53;;;15.70;;
24857;SDS011;12935;50.782;6.074;2022-08-19T03:21:19;27.27;;;15.40;;
24857;SDS011;12935;50.782;6.074;2022-08-19T03:23:46;29.20;;;14.60;;
24857;SDS011;12935;50.782;6.074;2022-08-19T03:26:12;23.63;;;15.30;;
24857;SDS011;12935;50.782;6.074;2022-08-19T03:28:39;31.10;;;16.60;;
24857;SDS011;12935;50.782;6.074;2022-08-19T03:31:07;44.67;;;21.20;;
24857;SDS011;12935;50.782;6.074;2022-08-19T03:33:36;31.90;;;18.70;;
24857;SDS011;12935;50.782;6.074;2022-08-19T03:36:15;26.90;;;15.53;;
24857;SDS011;12935;50.782;6.074;2022-08-19T03:38:44;34.83;;;18.03;;
24857;SDS011;12935;50.782;6.074;2022-08-19T03:41:15;30.63;;;16.70;;
24857;SDS011;12935;50.782;6.074;2022-08-19T03:43:43;23.40;;;15.13;;
24857;SDS011;12935;50.782;6.074;2022-08-19T03:46:12;26.93;;;15.53;;
24857;SDS011;12935;50.782;6.074;2022-08-19T03:48:48;39.23;;;19.63;;
24857;SDS011;12935;50.782;6.074;2022-08-19T03:51:40;31.63;;;16.20;;
24857;SDS011;12935;50.782;6.074;2022-08-19T03:54:07;43.60;;;19.33;;
24857;SDS011;12935;50.782;6.074;2022-08-19T03:56:35;33.80;;;15.83;;
24857;SDS011;12935;50.782;6.074;2022-08-19T03:59:02;32.87;;;19.27;;
24857;SDS011;12935;50.782;6.074;2022-08-19T04:01:29;35.63;;;19.30;;
24857;SDS011;12935;50.782;6.074;2022-08-19T04:03:58;44.80;;;18.20;;
24857;SDS011;12935;50.782;6.074;2022-08-19T04:06:31;36.00;;;19.63;;
24857;SDS011;12935;50.782;6.074;2022-08-19T04:08:59;38.63;;;18.70;;
24857;SDS011;12935;50.782;6.074;2022-08-19T04:11:28;43.57;;;20.43;;
24857;SDS011;12935;50.782;6.074;2022-08-19T04:13:54;35.57;;;18.73;;
24857;SDS011;12935;50.782;6.074;2022-08-19T04:16:21;31.67;;;17.47;;
24857;SDS011;12935;50.782;6.074;2022-08-19T04:18:48;36.80;;;20.30;;
24857;SDS011;12935;50.782;6.074;2022-08-19T04:21:16;37.80;;;22.93;;
24857;SDS011;12935;50.782;6.074;2022-08-19T04:23:43;54.50;;;24.20;;
24857;SDS011;12935;50.782;6.074;2022-08-19T04:26:12;33.33;;;17.90;;
24857;SDS011;12935;50.782;6.074;2022-08-19T04:28:43;54.73;;;21.07;;
24857;SDS011;12935;50.782;6.074;2022-08-19T04:31:13;51.13;;;23.83;;
24857;SDS011;12935;50.782;6.074;2022-08-19T04:33:40;41.40;;;19.10;;
24857;SDS011;12935;50.782;6.074;2022-08-19T04:36:05;31.33;;;20.03;;
24857;SDS011;12935;50.782;6.074;2022-08-19T04:38:31;42.13;;;18.00;;
24857;SDS011;12935;50.782;6.074;2022-08-19T04:40:56;45.70;;;19.30;;
24857;SDS011;12935;50.782;6.074;2022-08-19T04:43:40;32.30;;;16.67;;
24857;SDS011;12935;50.782;6.074;2022-08-19T04:46:09;30.90;;;18.23;;
24857;SDS011;12935;50.782;6.074;2022-08-19T04:48:36;50.23;;;23.63;;
24857;SDS011;12935;50.782;6.074;2022-08-19T04:51:06;59.43;;;22.63;;
24857;SDS011;12935;50.782;6.074;2022-08-19T04:53:34;46.47;;;21.50;;
24857;SDS011;12935;50.782;6.074;2022-08-19T04:56:03;58.17;;;22.07;;
24857;SDS011;12935;50.782;6.074;2022-08-19T04:58:32;55.53;;;21.50;;
24857;SDS011;12935;50.782;6.074;2022-08-19T05:00:58;27.60;;;18.87;;
24857;SDS011;12935;50.782;6.074;2022-08-19T05:03:25;41.10;;;20.03;;
24857;SDS011;12935;50.782;6.074;2022-08-19T05:05:51;43.13;;;21.00;;
24857;SDS011;12935;50.782;6.074;2022-08-19T05:08:18;36.83;;;18.47;;
24857;SDS011;12935;50.782;6.074;2022-08-19T05:10:46;46.83;;;22.03;;
24857;SDS011;12935;50.782;6.074;2022-08-19T05:13:12;39.10;;;20.00;;
24857;SDS011;12935;50.782;6.074;2022-08-19T05:15:39;58.33;;;22.00;;
24857;SDS011;12935;50.782;6.074;2022-08-19T05:18:05;40.70;;;19.53;;
24857;SDS011;12935;50.782;6.074;2022-08-19T05:20:49;60.73;;;19.63;;
24857;SDS011;12935;50.782;6.074;2022-08-19T05:23:32;44.60;;;18.17;;
24857;SDS011;12935;50.782;6.074;2022-08-19T05:25:58;37.93;;;22.30;;
24857;SDS011;12935;50.782;6.074;2022-08-19T05:28:23;61.90;;;20.77;;
24857;SDS011;12935;50.782;6.074;2022-08-19T05:30:48;33.23;;;16.57;;
24857;SDS011;12935;50.782;6.074;2022-08-19T05:33:15;40.10;;;17.23;;
24857;SDS011;12935;50.782;6.074;2022-08-19T05:35:41;40.37;;;19.83;;
24857;SDS011;12935;50.782;6.074;2022-08-19T05:38:07;48.07;;;21.30;;
24857;SDS011;12935;50.782;6.074;2022-08-19T05:40:34;27.97;;;15.37;;
24857;SDS011;12935;50.782;6.074;2022-08-19T05:43:01;42.00;;;19.97;;
24857;SDS011;12935;50.782;6.074;2022-08-19T05:45:27;40.20;;;21.70;;
24857;SDS011;12935;50.782;6.074;2022-08-19T05:47:52;30.37;;;17.47;;
24857;SDS011;12935;50.782;6.074;2022-08-19T05:50:19;61.27;;;22.53;;
24857;SDS011;12935;50.782;6.074;2022-08-19T05:52:45;50.30;;;20.80;;
24857;SDS011;12935;50.782;6.074;2022-08-19T05:55:10;57.97;;;22.47;;
24857;SDS011;12935;50.782;6.074;2022-08-19T05:57:35;46.00;;;17.70;;
24857;SDS011;12935;50.782;6.074;2022-08-19T06:00:01;53.60;;;20.53;;
24857;SDS011;12935;50.782;6.074;2022-08-19T06:02:29;40.70;;;17.90;;
24857;SDS011;12935;50.782;6.074;2022-08-19T06:04:58;41.20;;;20.53;;
24857;SDS011;12935;50.782;6.074;2022-08-19T06:07:23;43.20;;;18.23;;
24857;SDS011;12935;50.782;6.074;2022-08-19T06:09:49;34.30;;;19.60;;
24857;SDS011;12935;50.782;6.074;2022-08-19T06:12:14;62.57;;;18.40;;
24857;SDS011;12935;50.782;6.074;2022-08-19T06:14:39;26.67;;;17.03;;
24857;SDS011;12935;50.782;6.074;2022-08-19T06:17:06;30.13;;;15.10;;
24857;SDS011;12935;50.782;6.074;2022-08-19T06:19:31;32.10;;;18.30;;
24857;SDS011;12935;50.782;6.074;2022-08-19T06:21:57;32.03;;;16.77;;
24857;SDS011;12935;50.782;6.074;2022-08-19T06:24:24;39.07;;;17.77;;
24857;SDS011;12935;50.782;6.074;2022-08-19T06:26:52;44.27;;;16.60;;
24857;SDS011;12935;50.782;6.074;2022-08-19T06:29:20;46.20;;;19.20;;
24857;SDS011;12935;50.782;6.074;2022-08-19T06:31:48;34.03;;;17.27;;
24857;SDS011;12935;50.782;6.074;2022-08-19T06:34:16;31.97;;;14.93;;
24857;SDS011;12935;50.782;6.074;2022-08-19T06:36:43;23.13;;;14.70;;
24857;SDS011;12935;50.782;6.074;2022-08-19T06:39:11;33.93;;;16.23;;
24857;SDS011;12935;50.782;6.074;2022-08-19T06:41:41;34.37;;;17.67;;
24857;SDS011;12935;50.782;6.074;2022-08-19T06:44:08;39.00;;;16.90;;
24857;SDS011;12935;50.782;6.074;2022-08-19T06:46:35;38.63;;;17.67;;
24857;SDS011;12935;50.782;6.074;2022-08-19T06:49:01;35.87;;;17.37;;
24857;SDS011;12935;50.782;6.074;2022-08-19T06:51:27;38.33;;;17.63;;
24857;SDS011;12935;50.782;6.074;2022-08-19T06:53:53;38.70;;;16.43;;
24857;SDS011;12935;50.782;6.074;2022-08-19T06:56:20;36.57;;;16.17;;
24857;SDS011;12935;50.782;6.074;2022-08-19T06:58:49;35.37;;;18.17;;
24857;SDS011;12935;50.782;6.074;2022-08-19T07:01:17;35.77;;;18.17;;
24857;SDS011;12935;50.782;6.074;2022-08-19T07:03:44;32.03;;;16.80;;
24857;SDS011;12935;50.782;6.074;2022-08-19T07:06:10;38.23;;;20.00;;
24857;SDS011;12935;50.782;6.074;2022-08-19T07:08:39;42.20;;;23.07;;
24857;SDS011;12935;50.782;6.074;2022-08-19T07:11:08;44.80;;;19.90;;
24857;SDS011;12935;50.782;6.074;2022-08-19T07:13:35;34.57;;;19.73;;
24857;SDS011;12935;50.782;6.074;2022-08-19T07:16:12;52.20;;;21.97;;
24857;SDS011;12935;50.782;6.074;2022-08-19T07:18:39;30.50;;;16.33;;
24857;SDS011;12935;50.782;6.074;2022-08-19T07:21:06;41.30;;;20.90;;
24857;SDS011;12935;50.782;6.074;2022-08-19T07:23:40;40.23;;;18.73;;
24857;SDS011;12935;50.782;6.074;2022-08-19T07:26:09;36.43;;;20.60;;
24857;SDS011;12935;50.782;6.074;2022-08-19T07:28:39;37.77;;;20.27;;
24857;SDS011;12935;50.782;6.074;2022-08-19T07:31:05;50.97;;;21.83;;
24857;SDS011;12935;50.782;6.074;2022-08-19T07:33:32;43.00;;;19.37;;
24857;SDS011;12935;50.782;6.074;2022-08-19T07:35:58;44.90;;;22.60;;
24857;SDS011;12935;50.782;6.074;2022-08-19T07:38:23;40.77;;;22.33;;
24857;SDS011;12935;50.782;6.074;2022-08-19T07:40:49;49.17;;;26.90;;
24857;SDS011;12935;50.782;6.074;2022-08-19T07:43:16;40.27;;;19.33;;
24857;SDS011;12935;50.782;6.074;2022-08-19T07:45:45;38.23;;;21.63;;
24857;SDS011;12935;50.782;6.074;2022-08-19T07:48:12;36.00;;;20.47;;
24857;SDS011;12935;50.782;6.074;2022-08-19T07:50:37;53.47;;;20.27;;
24857;SDS011;12935;50.782;6.074;2022-08-19T07:53:02;51.00;;;22.07;;
24857;SDS011;12935;50.782;6.074;2022-08-19T07:55:28;46.97;;;19.50;;
24857;SDS011;12935;50.782;6.074;2022-08-19T07:57:53;37.23;;;20.50;;
24857;SDS011;12935;50.782;6.074;2022-08-19T08:00:18;45.73;;;18.00;;
24857;SDS011;12935;50.782;6.074;2022-08-19T08:02:44;38.77;;;20.27;;
24857;SDS011;12935;50.782;6.074;2022-08-19T08:05:09;46.00;;;19.27;;
24857;SDS011;12935;50.782;6.074;2022-08-19T08:07:54;39.30;;;20.27;;
24857;SDS011;12935;50.782;6.074;2022-08-19T08:10:38;33.57;;;20.50;;
24857;SDS011;12935;50.782;6.074;2022-08-19T08:13:03;35.07;;;20.87;;
24857;SDS011;12935;50.782;6.074;2022-08-19T08:15:30;49.20;;;26.10;;
24857;SDS011;12935;50.782;6.074;2022-08-19T08:17:56;28.57;;;18.07;;
24857;SDS011;12935;50.782;6.074;2022-08-19T08:20:23;37.60;;;21.57;;
24857;SDS011;12935;50.782;6.074;2022-08-19T08:22:49;40.23;;;23.17;;
24857;SDS011;12935;50.782;6.074;2022-08-19T08:25:33;47.67;;;23.33;;
24857;SDS011;12935;50.782;6.074;2022-08-19T08:28:00;36.93;;;21.70;;
24857;SDS011;12935;50.782;6.074;2022-08-19T08:30:27;52.63;;;25.13;;
24857;SDS011;12935;50.782;6.074;2022-08-19T08:32:54;25.57;;;20.87;;
24857;SDS011;12935;50.782;6.074;2022-08-19T08:35:20;39.53;;;21.40;;
24857;SDS011;12935;50.782;6.074;2022-08-19T08:37:48;51.43;;;22.90;;
24857;SDS011;12935;50.782;6.074;2022-08-19T08:40:28;69.13;;;26.97;;
24857;SDS011;12935;50.782;6.074;2022-08-19T08:43:02;29.53;;;21.80;;
24857;SDS011;12935;50.782;6.074;2022-08-19T08:45:32;51.20;;;22.37;;
24857;SDS011;12935;50.782;6.074;2022-08-19T08:48:02;53.03;;;24.10;;
24857;SDS011;12935;50.782;6.074;2022-08-19T08:50:39;33.83;;;22.90;;
24857;SDS011;12935;50.782;6.074;2022-08-19T08:53:09;60.03;;;23.13;;
24857;SDS011;12935;50.782;6.074;2022-08-19T08:55:36;43.90;;;23.73;;
24857;SDS011;12935;50.782;6.074;2022-08-19T08:58:20;45.67;;;21.67;;
24857;SDS011;12935;50.782;6.074;2022-08-19T09:00:52;46.27;;;23.30;;
24857;SDS011;12935;50.782;6.074;2022-08-19T09:05:48;48.13;;;24.10;;
24857;SDS011;12935;50.782;6.074;2022-08-19T09:11:15;42.83;;;24.17;;
24857;SDS011;12935;50.782;6.074;2022-08-19T09:16:44;43.47;;;23.07;;
24857;SDS011;12935;50.782;6.074;2022-08-19T09:19:10;52.07;;;22.90;;
24857;SDS011;12935;50.782;6.074;2022-08-19T09:21:35;34.60;;;21.27;;
24857;SDS011;12935;50.782;6.074;2022-08-19T09:24:02;39.23;;;21.37;;
24857;SDS011;12935;50.782;6.074;2022-08-19T09:26:28;37.63;;;23.97;;
24857;SDS011;12935;50.782;6.074;2022-08-19T09:28:54;41.10;;;22.60;;
24857;SDS011;12935;50.782;6.074;2022-08-19T09:31:23;40.47;;;23.23;;
24857;SDS011;12935;50.782;6.074;2022-08-19T09:33:51;47.60;;;21.57;;
24857;SDS011;12935;50.782;6.074;2022-08-19T09:36:19;48.60;;;24.80;;
24857;SDS011;12935;50.782;6.074;2022-08-19T09:38:47;48.43;;;23.33;;
24857;SDS011;12935;50.782;6.074;2022-08-19T09:41:14;39.47;;;22.17;;
24857;SDS011;12935;50.782;6.074;2022-08-19T09:43:44;37.83;;;24.20;;
24857;SDS011;12935;50.782;6.074;2022-08-19T09:46:11;37.97;;;22.97;;
24857;SDS011;12935;50.782;6.074;2022-08-19T09:48:37;38.43;;;22.23;;
24857;SDS011;12935;50.782;6.074;2022-08-19T09:51:10;61.43;;;25.93;;
24857;SDS011;12935;50.782;6.074;2022-08-19T09:53:38;44.70;;;22.00;;
24857;SDS011;12935;50.782;6.074;2022-08-19T09:56:04;44.60;;;22.83;;
24857;SDS011;12935;50.782;6.074;2022-08-19T09:58:30;38.63;;;24.03;;
24857;SDS011;12935;50.782;6.074;2022-08-19T10:00:59;49.63;;;23.40;;
24857;SDS011;12935;50.782;6.074;2022-08-19T10:03:27;40.13;;;23.03;;
24857;SDS011;12935;50.782;6.074;2022-08-19T10:05:54;43.10;;;24.53;;
24857;SDS011;12935;50.782;6.074;2022-08-19T10:08:21;35.67;;;21.67;;
24857;SDS011;12935;50.782;6.074;2022-08-19T10:10:50;38.13;;;22.80;;
24857;SDS011;12935;50.782;6.074;2022-08-19T10:13:17;37.63;;;22.07;;
24857;SDS011;12935;50.782;6.074;2022-08-19T10:15:49;36.87;;;24.03;;
24857;SDS011;12935;50.782;6.074;2022-08-19T10:18:15;34.80;;;20.73;;
24857;SDS011;12935;50.782;6.074;2022-08-19T10:20:43;46.53;;;22.97;;
24857;SDS011;12935;50.782;6.074;2022-08-19T10:23:10;35.60;;;22.50;;
24857;SDS011;12935;50.782;6.074;2022-08-19T10:25:36;24.03;;;19.27;;
24857;SDS011;12935;50.782;6.074;2022-08-19T10:28:02;22.23;;;19.60;;
24857;SDS011;12935;50.782;6.074;2022-08-19T10:30:28;43.90;;;22.47;;
24857;SDS011;12935;50.782;6.074;2022-08-19T10:32:54;30.63;;;19.90;;
24857;SDS011;12935;50.782;6.074;2022-08-19T10:35:19;27.73;;;22.53;;
24857;SDS011;12935;50.782;6.074;2022-08-19T10:37:45;43.63;;;23.70;;
24857;SDS011;12935;50.782;6.074;2022-08-19T10:40:10;44.37;;;22.30;;
24857;SDS011;12935;50.782;6.074;2022-08-19T10:42:36;27.80;;;22.87;;
24857;SDS011;12935;50.782;6.074;2022-08-19T10:45:02;45.13;;;24.10;;
24857;SDS011;12935;50.782;6.074;2022-08-19T10:47:28;42.70;;;22.13;;
24857;SDS011;12935;50.782;6.074;2022-08-19T10:49:54;43.03;;;20.30;;
24857;SDS011;12935;50.782;6.074;2022-08-19T10:52:39;44.80;;;23.83;;
24857;SDS011;12935;50.782;6.074;2022-08-19T10:55:07;54.77;;;26.77;;
24857;SDS011;12935;50.782;6.074;2022-08-19T10:57:51;51.67;;;24.80;;
24857;SDS011;12935;50.782;6.074;2022-08-19T11:00:17;36.70;;;23.33;;
24857;SDS011;12935;50.782;6.074;2022-08-19T11:02:44;41.70;;;22.27;;
24857;SDS011;12935;50.782;6.074;2022-08-19T11:05:11;35.33;;;22.50;;
24857;SDS011;12935;50.782;6.074;2022-08-19T11:07:38;34.37;;;20.83;;
24857;SDS011;12935;50.782;6.074;2022-08-19T11:10:04;51.13;;;23.73;;
24857;SDS011;12935;50.782;6.074;2022-08-19T11:12:30;53.30;;;22.97;;
24857;SDS011;12935;50.782;6.074;2022-08-19T11:14:56;60.73;;;22.33;;
24857;SDS011;12935;50.782;6.074;2022-08-19T11:17:21;41.40;;;24.40;;
24857;SDS011;12935;50.782;6.074;2022-08-19T11:19:48;37.93;;;24.60;;
24857;SDS011;12935;50.782;6.074;2022-08-19T11:22:14;58.27;;;25.10;;
24857;SDS011;12935;50.782;6.074;2022-08-19T11:24:39;41.77;;;22.70;;
24857;SDS011;12935;50.782;6.074;2022-08-19T11:27:06;34.90;;;23.23;;
24857;SDS011;12935;50.782;6.074;2022-08-19T11:29:34;31.83;;;21.30;;
24857;SDS011;12935;50.782;6.074;2022-08-19T11:32:06;34.93;;;24.47;;
24857;SDS011;12935;50.782;6.074;2022-08-19T11:34:37;31.47;;;21.77;;
24857;SDS011;12935;50.782;6.074;2022-08-19T11:37:03;45.10;;;25.20;;
24857;SDS011;12935;50.782;6.074;2022-08-19T11:39:30;38.70;;;21.53;;
24857;SDS011;12935;50.782;6.074;2022-08-19T11:41:58;45.70;;;23.70;;
24857;SDS011;12935;50.782;6.074;2022-08-19T11:44:24;45.03;;;22.50;;
24857;SDS011;12935;50.782;6.074;2022-08-19T11:46:50;51.37;;;25.70;;
24857;SDS011;12935;50.782;6.074;2022-08-19T11:49:17;29.53;;;21.80;;
24857;SDS011;12935;50.782;6.074;2022-08-19T11:51:44;44.10;;;25.57;;
24857;SDS011;12935;50.782;6.074;2022-08-19T11:54:10;34.87;;;23.37;;
24857;SDS011;12935;50.782;6.074;2022-08-19T11:56:38;36.57;;;22.30;;
24857;SDS011;12935;50.782;6.074;2022-08-19T11:59:04;40.40;;;22.90;;
24857;SDS011;12935;50.782;6.074;2022-08-19T12:01:29;39.63;;;22.93;;
24857;SDS011;12935;50.782;6.074;2022-08-19T12:03:56;37.07;;;22.60;;
24857;SDS011;12935;50.782;6.074;2022-08-19T12:06:29;45.13;;;24.07;;
24857;SDS011;12935;50.782;6.074;2022-08-19T12:08:57;33.87;;;21.17;;
24857;SDS011;12935;50.782;6.074;2022-08-19T12:11:24;28.37;;;20.93;;
24857;SDS011;12935;50.782;6.074;2022-08-19T12:13:50;28.03;;;19.93;;
24857;SDS011;12935;50.782;6.074;2022-08-19T12:16:16;31.70;;;20.57;;
24857;SDS011;12935;50.782;6.074;2022-08-19T12:18:48;33.93;;;20.97;;
24857;SDS011;12935;50.782;6.074;2022-08-19T12:21:16;30.00;;;20.70;;
24857;SDS011;12935;50.782;6.074;2022-08-19T12:23:46;36.63;;;21.60;;
24857;SDS011;12935;50.782;6.074;2022-08-19T12:26:12;21.80;;;17.20;;
24857;SDS011;12935;50.782;6.074;2022-08-19T12:28:38;45.53;;;21.10;;
24857;SDS011;12935;50.782;6.074;2022-08-19T12:31:03;33.93;;;20.60;;
24857;SDS011;12935;50.782;6.074;2022-08-19T12:33:29;38.80;;;20.80;;
24857;SDS011;12935;50.782;6.074;2022-08-19T12:35:59;21.13;;;17.37;;
24857;SDS011;12935;50.782;6.074;2022-08-19T12:38:26;31.20;;;19.00;;
24857;SDS011;12935;50.782;6.074;2022-08-19T12:40:52;23.13;;;19.83;;
24857;SDS011;12935;50.782;6.074;2022-08-19T12:43:17;30.50;;;20.90;;
24857;SDS011;12935;50.782;6.074;2022-08-19T12:45:44;23.23;;;19.03;;
24857;SDS011;12935;50.782;6.074;2022-08-19T12:48:10;26.73;;;18.30;;
24857;SDS011;12935;50.782;6.074;2022-08-19T12:50:35;35.63;;;17.80;;
24857;SDS011;12935;50.782;6.074;2022-08-19T12:53:04;22.80;;;18.90;;
24857;SDS011;12935;50.782;6.074;2022-08-19T12:55:29;32.07;;;18.83;;
24857;SDS011;12935;50.782;6.074;2022-08-19T12:57:55;22.30;;;17.93;;
24857;SDS011;12935;50.782;6.074;2022-08-19T13:00:21;26.00;;;18.80;;
24857;SDS011;12935;50.782;6.074;2022-08-19T13:02:48;31.67;;;18.63;;
24857;SDS011;12935;50.782;6.074;2022-08-19T13:05:17;21.83;;;18.90;;
24857;SDS011;12935;50.782;6.074;2022-08-19T13:07:45;39.60;;;20.83;;
24857;SDS011;12935;50.782;6.074;2022-08-19T13:10:12;32.53;;;20.53;;
24857;SDS011;12935;50.782;6.074;2022-08-19T13:12:40;36.33;;;20.03;;
24857;SDS011;12935;50.782;6.074;2022-08-19T13:15:06;35.17;;;19.13;;
24857;SDS011;12935;50.782;6.074;2022-08-19T13:17:33;30.60;;;20.13;;
24857;SDS011;12935;50.782;6.074;2022-08-19T13:19:58;21.30;;;19.03;;
24857;SDS011;12935;50.782;6.074;2022-08-19T13:22:23;42.27;;;20.40;;
24857;SDS011;12935;50.782;6.074;2022-08-19T13:24:49;32.40;;;18.97;;
24857;SDS011;12935;50.782;6.074;2022-08-19T13:27:15;29.27;;;18.73;;
24857;SDS011;12935;50.782;6.074;2022-08-19T13:29:40;33.40;;;19.03;;
24857;SDS011;12935;50.782;6.074;2022-08-19T13:32:26;41.63;;;20.73;;
24857;SDS011;12935;50.782;6.074;2022-08-19T13:35:10;34.20;;;18.30;;
24857;SDS011;12935;50.782;6.074;2022-08-19T13:37:36;39.80;;;19.57;;
24857;SDS011;12935;50.782;6.074;2022-08-19T13:40:17;24.83;;;18.83;;
24857;SDS011;12935;50.782;6.074;2022-08-19T13:42:46;30.70;;;18.37;;
24857;SDS011;12935;50.782;6.074;2022-08-19T13:45:14;26.13;;;18.77;;
24857;SDS011;12935;50.782;6.074;2022-08-19T13:47:44;67.33;;;21.00;;
24857;SDS011;12935;50.782;6.074;2022-08-19T13:50:15;29.37;;;18.60;;
24857;SDS011;12935;50.782;6.074;2022-08-19T13:52:43;25.43;;;19.97;;
24857;SDS011;12935;50.782;6.074;2022-08-19T13:55:10;41.27;;;20.70;;
24857;SDS011;12935;50.782;6.074;2022-08-19T13:57:37;24.03;;;18.97;;
24857;SDS011;12935;50.782;6.074;2022-08-19T14:00:06;29.60;;;18.43;;
24857;SDS011;12935;50.782;6.074;2022-08-19T14:02:35;21.50;;;18.50;;
24857;SDS011;12935;50.782;6.074;2022-08-19T14:05:02;31.77;;;18.90;;
24857;SDS011;12935;50.782;6.074;2022-08-19T14:07:29;27.40;;;19.53;;
24857;SDS011;12935;50.782;6.074;2022-08-19T14:09:54;27.87;;;17.63;;
24857;SDS011;12935;50.782;6.074;2022-08-19T14:12:20;56.67;;;22.03;;
24857;SDS011;12935;50.782;6.074;2022-08-19T14:14:46;33.00;;;19.00;;
24857;SDS011;12935;50.782;6.074;2022-08-19T14:17:12;39.47;;;18.67;;
24857;SDS011;12935;50.782;6.074;2022-08-19T14:19:37;34.50;;;19.20;;
24857;SDS011;12935;50.782;6.074;2022-08-19T14:22:02;32.57;;;18.93;;
24857;SDS011;12935;50.782;6.074;2022-08-19T14:24:29;33.30;;;20.00;;
24857;SDS011;12935;50.782;6.074;2022-08-19T14:26:54;27.70;;;19.53;;
24857;SDS011;12935;50.782;6.074;2022-08-19T14:29:19;42.83;;;19.40;;
24857;SDS011;12935;50.782;6.074;2022-08-19T14:31:45;38.17;;;20.23;;
24857;SDS011;12935;50.782;6.074;2022-08-19T14:34:10;54.10;;;21.13;;
24857;SDS011;12935;50.782;6.074;2022-08-19T14:36:37;26.83;;;18.00;;